Time;durP1;ratioP1;P1;durP2;ratioP2;P2;SDS_P1;SDS_P2;PMS_P1;PMS_P2;Temp;Humidity;BMP_temperature;BMP_pressure;BME280_temperature;BME280_humidity;BME280_pressure;Samples;Min_cycle;Max_cycle;Signal;HPM_P1;HPM_P2
2022/05/25 00:00:12;;;;;;;11.50;9.40;;;13.40;63.50;;;;;;5103600;28;20222;-85
2022/05/25 00:02:39;;;;;;;12.47;10.73;;;13.30;65.90;;;;;;5100523;28;20164;-87
2022/05/25 00:05:13;;;;;;;11.57;10.20;;;13.20;66.70;;;;;;5098103;28;20164;-88
2022/05/25 00:07:39;;;;;;;8.83;8.00;;;13.20;68.70;;;;;;5100000;28;20238;-80
2022/05/25 00:10:05;;;;;;;10.70;7.37;;;13.10;69.10;;;;;;5089857;28;20623;-88
2022/05/25 00:12:38;;;;;;;10.23;9.13;;;13.10;69.70;;;;;;5097403;28;20209;-78
2022/05/25 00:15:06;;;;;;;26.70;23.93;;;13.10;69.80;;;;;;5095882;28;20159;-77
2022/05/25 00:17:39;;;;;;;40.30;36.80;;;13.10;70.30;;;;;;5095723;28;20160;-75
2022/05/25 00:20:05;;;;;;;43.07;39.43;;;13.00;69.50;;;;;;5081129;28;20168;-82
2022/05/25 00:22:42;;;;;;;41.40;37.80;;;13.00;68.90;;;;;;5117630;28;20160;-77
2022/05/25 00:25:33;;;;;;;43.53;39.90;;;13.10;70.20;;;;;;5115338;28;20186;-77
2022/05/25 00:28:04;;;;;;;36.70;33.17;;;13.10;69.00;;;;;;5115454;28;20221;-76
2022/05/25 00:30:31;;;;;;;23.40;21.40;;;13.10;69.60;;;;;;5117398;28;20172;-76
2022/05/25 00:32:58;;;;;;;20.93;18.33;;;13.00;71.10;;;;;;5117234;28;20156;-79
2022/05/25 00:35:26;;;;;;;17.23;15.43;;;13.10;71.70;;;;;;5109817;28;20164;-76
2022/05/25 00:37:52;;;;;;;17.13;15.40;;;13.00;72.80;;;;;;5079498;28;20168;-77
2022/05/25 00:40:23;;;;;;;15.30;13.97;;;12.90;74.00;;;;;;5106850;28;20139;-78
2022/05/25 00:42:50;;;;;;;16.50;14.90;;;12.90;74.60;;;;;;5112407;28;20144;-77
2022/05/25 00:45:16;;;;;;;17.80;14.33;;;12.80;74.20;;;;;;5114425;28;20159;-84
2022/05/25 00:47:45;;;;;;;13.60;11.93;;;12.80;74.60;;;;;;5107056;28;20214;-77
2022/05/25 00:50:14;;;;;;;10.10;9.10;;;12.70;76.10;;;;;;5084004;28;20207;-77
2022/05/25 00:52:42;;;;;;;8.83;7.30;;;12.70;77.20;;;;;;5081535;28;20225;-78
2022/05/25 00:55:17;;;;;;;6.97;5.90;;;12.50;79.20;;;;;;5078361;28;20169;-79
2022/05/25 00:57:47;;;;;;;11.27;4.53;;;12.60;79.70;;;;;;5084428;28;20652;-80
2022/05/25 01:01:07;;;;;;;5.50;4.27;;;12.60;79.60;;;;;;5081281;28;20165;-85
2022/05/25 01:04:05;;;;;;;5.80;3.63;;;12.60;79.60;;;;;;5095261;28;20168;-77
2022/05/25 01:07:19;;;;;;;6.03;3.60;;;12.60;77.60;;;;;;5094732;28;20187;-76
2022/05/25 01:10:07;;;;;;;6.43;2.60;;;12.70;76.60;;;;;;5094981;28;20168;-76
2022/05/25 01:13:02;;;;;;;6.83;2.60;;;12.80;76.00;;;;;;5094145;28;20186;-77
2022/05/25 01:15:48;;;;;;;6.40;2.50;;;12.60;78.00;;;;;;5105397;28;20170;-77
2022/05/25 01:18:45;;;;;;;4.90;2.40;;;12.50;79.70;;;;;;5107635;28;20171;-76
2022/05/25 01:21:30;;;;;;;5.20;2.37;;;12.40;82.70;;;;;;5108069;28;20172;-76
2022/05/25 01:24:02;;;;;;;3.43;2.03;;;12.20;85.30;;;;;;5112131;28;20227;-78
2022/05/25 01:26:46;;;;;;;4.63;2.30;;;12.20;87.00;;;;;;5108298;28;20207;-88
2022/05/25 01:29:49;;;;;;;5.40;2.53;;;12.10;88.90;;;;;;5106204;28;20192;-78
2022/05/25 01:32:38;;;;;;;4.77;2.50;;;12.10;89.40;;;;;;5078310;28;20179;-77
2022/05/25 01:35:39;;;;;;;6.80;2.40;;;12.10;89.50;;;;;;5106157;28;20139;-79
2022/05/25 01:41:49;;;;;;;4.33;2.70;;;12.20;88.10;;;;;;5120191;28;20174;-88
2022/05/25 01:44:25;;;;;;;6.23;2.47;;;12.20;88.40;;;;;;5116200;28;20141;-81
2022/05/25 01:46:56;;;;;;;5.90;2.23;;;12.20;89.00;;;;;;5111308;28;20217;-79
2022/05/25 01:49:49;;;;;;;6.90;2.87;;;12.10;90.20;;;;;;5100367;28;20156;-86
2022/05/25 01:52:49;;;;;;;6.00;3.07;;;12.10;91.00;;;;;;5101007;28;20171;-81
2022/05/25 01:55:22;;;;;;;5.43;3.03;;;12.20;89.20;;;;;;5100018;28;20180;-89
2022/05/25 01:57:52;;;;;;;5.70;2.80;;;12.10;88.80;;;;;;5099134;28;20254;-88
2022/05/25 02:00:32;;;;;;;4.70;2.93;;;12.10;90.60;;;;;;5097145;28;20174;-78
2022/05/25 02:06:15;;;;;;;7.73;3.13;;;12.00;91.60;;;;;;5086604;28;20175;-80
2022/05/25 02:08:53;;;;;;;7.57;3.13;;;11.90;92.30;;;;;;5086005;28;20167;-77
2022/05/25 02:11:33;;;;;;;6.60;3.10;;;11.80;93.30;;;;;;5091154;28;20287;-80
2022/05/25 02:14:21;;;;;;;8.10;3.00;;;11.90;93.50;;;;;;5087227;28;20241;-79
2022/05/25 02:17:25;;;;;;;9.33;3.60;;;11.90;93.60;;;;;;5076828;28;20188;-76
2022/05/25 02:20:01;;;;;;;6.67;2.70;;;11.90;93.10;;;;;;5095069;28;20210;-77
2022/05/25 02:22:39;;;;;;;5.17;3.10;;;11.80;93.00;;;;;;5099752;28;20171;-88
2022/05/25 02:25:24;;;;;;;7.83;2.83;;;11.80;93.50;;;;;;5100714;28;20258;-83
2022/05/25 02:28:07;;;;;;;7.53;3.33;;;11.70;94.10;;;;;;5097205;28;20203;-89
2022/05/25 02:30:37;;;;;;;7.03;3.10;;;11.80;93.90;;;;;;5045723;28;20229;-88
2022/05/25 02:33:14;;;;;;;5.90;3.33;;;11.80;93.90;;;;;;5078209;28;20247;-77
2022/05/25 02:35:44;;;;;;;6.57;2.97;;;11.80;93.50;;;;;;5076619;28;20624;-79
2022/05/25 02:38:10;;;;;;;8.03;3.30;;;11.90;93.10;;;;;;5075957;28;20172;-79
2022/05/25 02:40:38;;;;;;;6.67;3.57;;;11.90;92.50;;;;;;5079515;28;20274;-89
2022/05/25 02:43:08;;;;;;;7.87;3.20;;;11.90;92.40;;;;;;5080241;28;20165;-90
2022/05/25 02:45:37;;;;;;;7.33;3.10;;;11.90;93.00;;;;;;5088054;28;20179;-78
2022/05/25 02:48:04;;;;;;;6.93;3.50;;;11.90;92.70;;;;;;5100505;28;20230;-77
2022/05/25 02:50:30;;;;;;;6.10;3.10;;;12.00;92.40;;;;;;5113234;28;20167;-77
2022/05/25 02:52:56;;;;;;;7.20;3.37;;;12.00;92.00;;;;;;5085251;28;20643;-88
2022/05/25 02:55:22;;;;;;;6.73;3.23;;;11.90;91.80;;;;;;5099232;28;20176;-78
2022/05/25 02:57:58;;;;;;;5.73;3.10;;;11.90;91.60;;;;;;5099470;28;20191;-88
2022/05/25 03:00:25;;;;;;;7.23;3.37;;;11.90;92.30;;;;;;5105311;28;20236;-88
2022/05/25 03:02:51;;;;;;;7.57;3.63;;;11.80;92.50;;;;;;5112328;28;20191;-84
2022/05/25 03:05:18;;;;;;;5.97;3.10;;;11.80;92.50;;;;;;5113679;28;20148;-81
2022/05/25 03:07:44;;;;;;;5.30;3.17;;;11.80;92.50;;;;;;5115231;28;20579;-78
2022/05/25 03:10:10;;;;;;;7.47;3.50;;;11.80;92.70;;;;;;5106293;28;20176;-79
2022/05/25 03:12:37;;;;;;;5.30;3.60;;;11.70;92.90;;;;;;5079879;28;20176;-77
2022/05/25 03:15:05;;;;;;;7.23;3.10;;;11.70;93.30;;;;;;5097188;28;20159;-78
2022/05/25 03:17:32;;;;;;;6.13;3.87;;;11.70;93.40;;;;;;5096405;28;20172;-77
2022/05/25 03:20:00;;;;;;;6.23;3.37;;;11.80;92.80;;;;;;5099053;28;20167;-82
2022/05/25 03:22:26;;;;;;;7.60;3.50;;;11.90;92.30;;;;;;5088071;28;20176;-80
2022/05/25 03:24:52;;;;;;;6.27;4.03;;;11.80;91.50;;;;;;5101667;28;20175;-78
2022/05/25 03:27:19;;;;;;;6.70;3.70;;;11.90;90.80;;;;;;5097969;28;20290;-77
2022/05/25 03:29:45;;;;;;;8.30;3.83;;;11.90;90.20;;;;;;5110202;28;20187;-77
2022/05/25 03:32:11;;;;;;;6.83;3.70;;;11.90;89.80;;;;;;5113390;28;20152;-77
2022/05/25 03:34:40;;;;;;;7.00;3.57;;;11.80;90.50;;;;;;5112028;28;20182;-77
2022/05/25 03:37:06;;;;;;;6.93;4.03;;;11.80;90.60;;;;;;5117182;28;20141;-82
2022/05/25 03:39:33;;;;;;;7.57;3.57;;;11.70;90.20;;;;;;5116153;28;20199;-76
2022/05/25 03:42:06;;;;;;;5.80;3.50;;;11.80;90.80;;;;;;5100619;28;20164;-77
2022/05/25 03:45:14;;;;;;;9.30;4.23;;;11.70;89.90;;;;;;5096874;28;20160;-76
2022/05/25 03:48:00;;;;;;;7.03;3.17;;;11.80;90.00;;;;;;5096075;28;20740;-78
2022/05/25 03:50:44;;;;;;;6.13;3.80;;;11.80;88.30;;;;;;5095933;28;20178;-81
2022/05/25 03:53:52;;;;;;;9.00;3.30;;;11.90;88.00;;;;;;5076606;28;20171;-77
2022/05/25 03:56:19;;;;;;;6.30;3.87;;;12.00;84.40;;;;;;5077359;28;20258;-77
2022/05/25 03:58:46;;;;;;;6.80;3.93;;;12.00;83.00;;;;;;5080494;28;20664;-88
2022/05/25 04:01:12;;;;;;;5.23;3.83;;;11.90;82.90;;;;;;5085539;28;20183;-89
2022/05/25 04:03:40;;;;;;;5.17;3.00;;;12.00;81.10;;;;;;5103757;28;20156;-79
2022/05/25 04:06:06;;;;;;;7.07;3.60;;;11.90;83.40;;;;;;5076513;28;20251;-79
2022/05/25 04:08:31;;;;;;;5.93;3.30;;;11.90;84.90;;;;;;5072476;28;20600;-80
2022/05/25 04:11:08;;;;;;;6.70;3.33;;;11.90;82.80;;;;;;5074293;28;20199;-78
2022/05/25 04:13:34;;;;;;;7.37;3.53;;;12.10;79.60;;;;;;5074092;28;20175;-80
2022/05/25 04:16:00;;;;;;;6.67;3.57;;;12.00;79.60;;;;;;5073696;28;20172;-77
2022/05/25 04:18:26;;;;;;;5.13;3.37;;;11.90;81.70;;;;;;5075341;28;20217;-78
2022/05/25 04:20:51;;;;;;;6.53;3.50;;;11.90;80.60;;;;;;5101139;28;20170;-88
2022/05/25 04:23:20;;;;;;;8.47;3.30;;;11.90;81.60;;;;;;5102699;28;20171;-89
2022/05/25 04:25:46;;;;;;;7.10;3.37;;;12.00;80.80;;;;;;5094549;28;20207;-77
2022/05/25 04:28:12;;;;;;;7.83;3.00;;;12.10;78.80;;;;;;5076462;28;20213;-78
2022/05/25 04:30:38;;;;;;;6.27;3.00;;;12.10;77.30;;;;;;5100401;28;20195;-87
2022/05/25 04:33:03;;;;;;;8.73;2.80;;;12.10;76.80;;;;;;5098573;28;20171;-81
2022/05/25 04:35:29;;;;;;;5.53;2.70;;;12.10;74.70;;;;;;5092764;28;20205;-78
2022/05/25 04:37:56;;;;;;;4.77;2.97;;;12.10;73.80;;;;;;5073706;28;20195;-80
2022/05/25 04:40:28;;;;;;;9.43;3.53;;;12.20;75.20;;;;;;5074158;28;20169;-79
2022/05/25 04:42:56;;;;;;;7.33;2.83;;;12.00;76.20;;;;;;5073680;28;20176;-77
2022/05/25 04:45:25;;;;;;;4.00;2.57;;;12.00;77.60;;;;;;5073456;28;20196;-80
2022/05/25 04:47:52;;;;;;;6.87;3.30;;;12.10;76.20;;;;;;5077185;28;20212;-78
2022/05/25 04:50:19;;;;;;;5.07;3.00;;;12.30;71.80;;;;;;5078110;28;20152;-82
2022/05/25 04:52:46;;;;;;;7.33;2.60;;;12.40;67.50;;;;;;5084130;28;20643;-84
2022/05/25 04:58:00;;;;;;;5.87;2.70;;;12.60;58.00;;;;;;5100160;28;20211;-86
2022/05/25 05:00:28;;;;;;;6.27;2.90;;;12.60;55.20;;;;;;5084538;28;20180;-86
2022/05/25 05:02:54;;;;;;;7.33;2.47;;;12.50;54.50;;;;;;5101496;28;20190;-88
2022/05/25 05:05:20;;;;;;;6.20;2.33;;;12.50;58.60;;;;;;5075299;28;20694;-78
2022/05/25 05:07:46;;;;;;;6.53;2.50;;;12.50;58.80;;;;;;5076856;28;20294;-77
2022/05/25 05:10:13;;;;;;;5.73;2.60;;;12.60;55.20;;;;;;5061997;28;20207;-82
2022/05/25 05:12:41;;;;;;;4.43;2.40;;;12.60;55.00;;;;;;5094697;28;20183;-81
2022/05/25 05:15:08;;;;;;;5.53;2.50;;;12.70;53.20;;;;;;5095835;28;20172;-79
2022/05/25 05:17:34;;;;;;;6.23;2.40;;;12.60;51.50;;;;;;5095021;28;20168;-77
2022/05/25 05:19:59;;;;;;;5.10;2.47;;;12.70;49.50;;;;;;5087673;28;20210;-80
2022/05/25 05:22:26;;;;;;;4.93;2.00;;;12.70;52.40;;;;;;5078663;28;20164;-85
2022/05/25 05:24:53;;;;;;;7.50;2.30;;;12.70;50.60;;;;;;5084916;28;20227;-80
2022/05/25 05:27:19;;;;;;;4.73;2.47;;;12.60;51.10;;;;;;5102868;28;20199;-88
2022/05/25 05:29:45;;;;;;;6.00;2.57;;;12.50;55.50;;;;;;5104905;28;20671;-81
2022/05/25 05:32:11;;;;;;;5.77;2.87;;;12.50;57.90;;;;;;5109140;28;20297;-78
2022/05/25 05:34:37;;;;;;;4.60;2.10;;;12.50;57.70;;;;;;5089371;28;20172;-78
2022/05/25 05:37:46;;;;;;;6.67;2.53;;;12.50;56.70;;;;;;5100018;28;20168;-76
2022/05/25 05:40:16;;;;;;;4.83;2.23;;;12.60;56.30;;;;;;5073862;28;20176;-81
2022/05/25 05:43:04;;;;;;;8.57;2.63;;;12.70;56.50;;;;;;5076978;28;20628;-80
2022/05/25 05:45:46;;;;;;;7.17;2.60;;;12.70;59.50;;;;;;5092453;28;20156;-76
2022/05/25 05:48:28;;;;;;;6.63;2.50;;;12.80;55.50;;;;;;5073802;28;20212;-77
2022/05/25 05:50:57;;;;;;;12.70;3.30;;;13.00;54.10;;;;;;5075528;28;20170;-79
2022/05/25 05:53:29;;;;;;;8.10;2.43;;;13.10;52.30;;;;;;5122560;28;20167;-78
2022/05/25 05:55:56;;;;;;;5.37;2.63;;;13.10;49.30;;;;;;5123013;28;20171;-82
2022/05/25 05:58:21;;;;;;;5.23;2.70;;;13.20;50.00;;;;;;5122156;28;20151;-77
2022/05/25 06:00:47;;;;;;;6.47;3.03;;;13.20;51.50;;;;;;5117546;28;20161;-76
2022/05/25 06:03:14;;;;;;;6.50;2.20;;;13.10;51.60;;;;;;5122127;28;20296;-77
2022/05/25 06:05:41;;;;;;;6.83;2.83;;;13.20;53.00;;;;;;5119198;28;20618;-80
2022/05/25 06:08:12;;;;;;;7.93;2.87;;;13.30;50.70;;;;;;5126379;28;20213;-78
2022/05/25 06:10:39;;;;;;;7.53;2.63;;;13.40;52.20;;;;;;5118733;28;20182;-80
2022/05/25 06:13:07;;;;;;;7.97;2.30;;;13.40;52.30;;;;;;5085104;28;20175;-77
2022/05/25 06:21:09;;;;;;;7.40;2.60;;;13.60;50.70;;;;;;5078552;28;20160;-79
2022/05/25 06:23:35;;;;;;;4.63;2.60;;;13.70;49.30;;;;;;5078634;28;20160;-78
2022/05/25 06:26:01;;;;;;;7.80;2.93;;;13.70;47.30;;;;;;5082065;28;20616;-77
2022/05/25 06:28:26;;;;;;;5.10;2.57;;;13.80;46.90;;;;;;5085549;28;20283;-79
2022/05/25 06:30:53;;;;;;;6.30;3.00;;;13.70;49.10;;;;;;5082202;28;20195;-82
2022/05/25 06:33:26;;;;;;;5.70;2.73;;;13.80;48.60;;;;;;5100503;28;20242;-77
2022/05/25 06:35:52;;;;;;;5.80;2.70;;;14.00;45.70;;;;;;5087921;28;20636;-78
2022/05/25 06:38:20;;;;;;;10.20;2.77;;;14.10;46.00;;;;;;5102067;28;20183;-80
2022/05/25 06:40:46;;;;;;;6.90;2.70;;;14.10;45.80;;;;;;5085996;28;20175;-78
2022/05/25 06:43:11;;;;;;;8.37;3.17;;;14.10;48.50;;;;;;5102946;28;20179;-81
2022/05/25 06:45:38;;;;;;;8.90;2.70;;;14.20;45.10;;;;;;5093881;28;20207;-80
2022/05/25 06:48:05;;;;;;;9.33;2.80;;;14.10;43.20;;;;;;5092950;28;20212;-83
2022/05/25 06:50:34;;;;;;;10.77;3.27;;;14.10;46.40;;;;;;5067342;28;20589;-80
2022/05/25 06:53:00;;;;;;;8.67;2.80;;;14.40;45.90;;;;;;5106201;28;20183;-78
2022/05/25 06:55:26;;;;;;;9.27;2.63;;;14.20;48.00;;;;;;5085567;28;20263;-85
2022/05/25 06:57:52;;;;;;;7.43;2.80;;;14.30;48.70;;;;;;5085390;28;20199;-82
2022/05/25 07:00:18;;;;;;;5.93;2.87;;;14.40;46.00;;;;;;5100310;28;20659;-87
2022/05/25 07:02:44;;;;;;;5.73;2.53;;;14.40;41.30;;;;;;5100321;28;20255;-79
2022/05/25 07:05:10;;;;;;;7.43;2.93;;;14.50;43.20;;;;;;5089638;28;20176;-86
2022/05/25 07:07:49;;;;;;;9.77;2.90;;;14.50;46.80;;;;;;5078172;28;20240;-81
2022/05/25 07:10:19;;;;;;;8.00;2.60;;;14.60;40.40;;;;;;5083862;28;20626;-81
2022/05/25 07:12:45;;;;;;;3.67;2.20;;;14.70;41.70;;;;;;5080444;28;20196;-80
2022/05/25 07:15:11;;;;;;;6.33;2.37;;;14.80;31.30;;;;;;5085831;28;20632;-80
2022/05/25 07:17:37;;;;;;;7.40;3.20;;;15.00;24.60;;;;;;5089412;28;20628;-81
2022/05/25 07:20:29;;;;;;;6.13;2.17;;;15.10;26.90;;;;;;5100034;28;20191;-86
2022/05/25 07:23:06;;;;;;;5.60;2.70;;;15.10;21.00;;;;;;5082805;28;20641;-91
2022/05/25 07:25:42;;;;;;;8.90;2.53;;;15.00;25.80;;;;;;5083786;28;20184;-87
2022/05/25 07:28:08;;;;;;;8.10;2.43;;;15.20;26.50;;;;;;5085431;28;20201;-88
2022/05/25 07:30:33;;;;;;;8.40;2.50;;;15.30;19.70;;;;;;5090326;28;20186;-82
2022/05/25 07:33:01;;;;;;;8.23;2.07;;;15.40;17.10;;;;;;5095433;28;20180;-85
2022/05/25 07:35:27;;;;;;;8.13;2.80;;;15.40;14.10;;;;;;5106993;28;20175;-86
2022/05/25 07:38:06;;;;;;;10.57;3.50;;;15.40;10.80;;;;;;5104443;28;20401;-91
2022/05/25 07:40:38;;;;;;;11.53;4.27;;;15.50;11.50;;;;;;5076149;28;20168;-78
2022/05/25 07:43:18;;;;;;;6.47;2.47;;;15.60;10.00;;;;;;5077132;28;20192;-76
2022/05/25 07:45:47;;;;;;;7.43;2.50;;;15.80;4.80;;;;;;5100524;28;20173;-82
2022/05/25 07:48:14;;;;;;;5.60;2.30;;;15.80;4.80;;;;;;5091507;28;20207;-89
2022/05/25 07:50:43;;;;;;;4.97;1.90;;;15.80;6.90;;;;;;5079010;28;20168;-82
2022/05/25 07:56:01;;;;;;;5.60;2.00;;;15.80;1.00;;;;;;5086529;28;20179;-89
2022/05/25 07:58:31;;;;;;;4.40;1.90;;;15.90;1.00;;;;;;5073606;28;20172;-80
2022/05/25 08:01:02;;;;;;;4.60;2.43;;;15.90;1.00;;;;;;5096641;28;20180;-83
2022/05/25 08:06:13;;;;;;;5.37;1.80;;;15.80;1.00;;;;;;5096217;28;20266;-80
2022/05/25 08:08:46;;;;;;;7.67;2.40;;;15.80;1.00;;;;;;5090352;28;20206;-85
2022/05/25 08:11:15;;;;;;;4.83;1.80;;;15.70;1.00;;;;;;5076285;28;20188;-79
2022/05/25 08:13:49;;;;;;;6.13;1.80;;;15.80;1.00;;;;;;5095413;28;20192;-81
2022/05/25 08:16:15;;;;;;;4.73;2.10;;;15.80;1.00;;;;;;5096716;28;20717;-81
2022/05/25 08:18:47;;;;;;;6.10;2.10;;;15.90;1.00;;;;;;5078040;28;20209;-80
2022/05/25 08:21:13;;;;;;;4.23;2.03;;;15.90;1.00;;;;;;5075259;28;20620;-83
2022/05/25 08:23:47;;;;;;;4.67;2.07;;;16.00;1.00;;;;;;5100456;28;20169;-85
2022/05/25 08:26:14;;;;;;;6.30;1.80;;;16.20;1.00;;;;;;5107481;28;20179;-82
2022/05/25 08:28:40;;;;;;;4.47;1.80;;;16.30;1.00;;;;;;5085377;28;20218;-82
2022/05/25 08:31:06;;;;;;;4.27;1.70;;;16.30;1.00;;;;;;5109920;28;20151;-84
2022/05/25 08:33:32;;;;;;;5.80;2.20;;;16.60;1.00;;;;;;5094475;28;20179;-80
2022/05/25 08:35:58;;;;;;;5.90;2.37;;;16.50;1.00;;;;;;5082700;28;20172;-83
2022/05/25 08:38:23;;;;;;;5.27;1.60;;;16.60;1.00;;;;;;5081883;28;20188;-83
2022/05/25 08:40:53;;;;;;;7.20;1.77;;;16.70;1.00;;;;;;5129762;28;20198;-79
2022/05/25 08:43:37;;;;;;;5.83;2.03;;;16.60;1.00;;;;;;5097500;28;20171;-84
2022/05/25 08:46:06;;;;;;;4.17;1.70;;;16.50;1.00;;;;;;5114098;28;20174;-81
2022/05/25 08:48:38;;;;;;;3.57;1.67;;;16.60;1.00;;;;;;5100879;28;20172;-80
2022/05/25 08:51:16;;;;;;;2.93;1.43;;;16.70;1.00;;;;;;5089800;28;20168;-80
2022/05/25 08:54:14;;;;;;;6.20;1.60;;;16.90;1.00;;;;;;5093126;28;20181;-81
2022/05/25 08:57:02;;;;;;;4.47;1.83;;;16.80;1.00;;;;;;5084564;28;20184;-81
2022/05/25 08:59:39;;;;;;;6.00;1.70;;;16.90;1.00;;;;;;5070893;28;20187;-81
2022/05/25 09:02:20;;;;;;;3.77;1.50;;;17.00;1.00;;;;;;5068036;28;20203;-80
2022/05/25 09:04:59;;;;;;;3.50;1.10;;;17.10;1.00;;;;;;5085783;28;20161;-86
2022/05/25 09:07:31;;;;;;;4.47;1.43;;;17.40;1.00;;;;;;5083858;28;20241;-84
2022/05/25 09:09:57;;;;;;;3.67;1.20;;;17.60;1.00;;;;;;5118153;28;20175;-86
2022/05/25 09:12:33;;;;;;;4.13;1.20;;;17.80;1.00;;;;;;5090718;28;20226;-82
2022/05/25 09:15:17;;;;;;;4.20;1.07;;;17.80;1.00;;;;;;5073720;28;20183;-86
2022/05/25 09:21:07;;;;;;;2.73;1.00;;;17.50;1.00;;;;;;5091627;28;20179;-80
2022/05/25 09:23:34;;;;;;;2.73;1.00;;;17.70;1.00;;;;;;5067415;28;20191;-84
2022/05/25 09:26:01;;;;;;;6.57;1.00;;;17.80;1.00;;;;;;5073666;28;20230;-81
2022/05/25 09:28:38;;;;;;;2.67;0.90;;;17.90;1.00;;;;;;5092416;28;20204;-80
2022/05/25 09:31:10;;;;;;;5.47;1.30;;;18.20;1.00;;;;;;5092676;28;20172;-83
2022/05/25 09:33:52;;;;;;;3.93;1.17;;;18.20;1.00;;;;;;5089418;28;20191;-83
2022/05/25 09:36:29;;;;;;;4.80;1.13;;;18.30;1.00;;;;;;5056982;28;20540;-80
2022/05/25 09:39:12;;;;;;;2.13;0.90;;;18.20;99.90;;;;;;5112371;28;20179;-81
2022/05/25 09:41:42;;;;;;;3.63;0.90;;;18.40;99.90;;;;;;5113739;28;20172;-79
2022/05/25 09:44:11;;;;;;;9.13;1.93;;;18.30;99.90;;;;;;5095867;28;20152;-82
2022/05/25 09:47:06;;;;;;;3.73;1.03;;;18.50;99.90;;;;;;5113446;28;20187;-82
2022/05/25 09:49:43;;;;;;;1.97;0.83;;;18.50;99.90;;;;;;5109669;28;20271;-81
2022/05/25 09:52:27;;;;;;;3.30;1.03;;;18.40;99.90;;;;;;5095205;28;20176;-83
2022/05/25 09:55:04;;;;;;;3.93;1.23;;;18.60;99.90;;;;;;5091852;28;20167;-82
2022/05/25 09:57:38;;;;;;;3.93;1.00;;;18.50;99.90;;;;;;5133059;28;20143;-80
2022/05/25 10:00:30;;;;;;;3.63;1.20;;;18.50;99.90;;;;;;5121808;28;20167;-85
2022/05/25 10:03:21;;;;;;;3.80;0.93;;;18.60;99.90;;;;;;5128620;28;20281;-82
2022/05/25 10:05:59;;;;;;;5.43;1.30;;;18.80;74.30;;;;;;5107012;28;20171;-81
2022/05/25 10:08:32;;;;;;;3.17;1.07;;;18.90;99.90;;;;;;5138957;28;20257;-80
2022/05/25 10:11:08;;;;;;;4.30;1.17;;;19.10;99.90;;;;;;5139905;28;20167;-81
2022/05/25 10:13:41;;;;;;;4.20;1.10;;;19.20;62.10;;;;;;5139978;28;20178;-84
2022/05/25 10:16:33;;;;;;;5.67;1.20;;;19.20;15.50;;;;;;5121336;28;20178;-82
2022/05/25 10:19:00;;;;;;;2.40;0.80;;;19.30;1.00;;;;;;5139383;28;20150;-78
2022/05/25 10:21:56;;;;;;;1.97;0.87;;;19.20;1.00;;;;;;5114337;28;20611;-83
2022/05/25 10:24:30;;;;;;;3.40;1.17;;;19.30;57.40;;;;;;5132994;28;20159;-82
2022/05/25 10:27:43;;;;;;;2.80;0.93;;;18.80;34.00;;;;;;5134843;28;20190;-82
2022/05/25 10:39:32;;;;;;;1.83;0.87;;;18.50;1.00;;;;;;5084435;28;20218;-82
2022/05/25 10:42:46;;;;;;;1.83;0.90;;;18.30;99.90;;;;;;5057458;28;20211;-84
2022/05/25 10:45:32;;;;;;;1.17;0.70;;;18.20;99.90;;;;;;5085598;28;20195;-87
2022/05/25 10:48:07;;;;;;;5.53;2.10;;;18.70;15.40;;;;;;5067046;28;20239;-85
2022/05/25 10:50:59;;;;;;;5.43;0.90;;;19.00;1.00;;;;;;5083355;28;20376;-84
2022/05/25 10:57:07;;;;;;;3.13;1.03;;;18.90;1.00;;;;;;5087840;28;20178;-83
2022/05/25 11:00:16;;;;;;;3.60;0.97;;;18.80;99.90;;;;;;5086499;28;20166;-82
2022/05/25 11:03:24;;;;;;;2.00;0.90;;;18.80;1.00;;;;;;5086297;28;20187;-86
2022/05/25 11:06:52;;;;;;;3.17;1.00;;;18.90;99.90;;;;;;5090260;28;20187;-86
2022/05/25 11:09:25;;;;;;;2.43;1.00;;;18.80;99.90;;;;;;5023406;28;20194;-85
2022/05/25 11:12:09;;;;;;;3.30;0.90;;;18.50;99.90;;;;;;5108324;28;20190;-82
2022/05/25 11:14:51;;;;;;;3.57;0.90;;;18.50;99.90;;;;;;5087521;28;20183;-87
2022/05/25 11:17:46;;;;;;;3.43;1.10;;;18.20;37.40;;;;;;5104279;28;20160;-84
2022/05/25 11:20:33;;;;;;;1.47;0.80;;;18.30;48.10;;;;;;5086244;28;20179;-84
2022/05/25 11:23:11;;;;;;;1.43;0.70;;;18.40;1.00;;;;;;5089839;28;20171;-86
2022/05/25 11:26:06;;;;;;;2.97;0.90;;;18.40;1.00;;;;;;5106376;28;20238;-84
2022/05/25 11:29:06;;;;;;;3.00;1.00;;;18.10;1.00;;;;;;5087725;28;20207;-86
2022/05/25 11:32:07;;;;;;;2.43;0.70;;;18.30;1.00;;;;;;5106878;28;20182;-86
2022/05/25 11:34:45;;;;;;;4.30;1.03;;;18.40;99.90;;;;;;5074998;28;20179;-87
2022/05/25 11:37:25;;;;;;;3.37;0.90;;;18.60;1.00;;;;;;5105690;28;20164;-84
2022/05/25 11:40:02;;;;;;;3.93;1.00;;;18.90;1.00;;;;;;5108247;28;20232;-82
2022/05/25 11:42:56;;;;;;;3.03;0.90;;;19.00;99.90;;;;;;5087071;28;20163;-81
2022/05/25 11:45:35;;;;;;;3.80;0.80;;;19.10;1.00;;;;;;5082626;28;20172;-82
2022/05/25 11:48:39;;;;;;;3.60;1.10;;;19.20;1.00;;;;;;5096971;28;20208;-86
2022/05/25 11:51:15;;;;;;;4.37;1.10;;;19.10;1.00;;;;;;5079030;28;20571;-82
2022/05/25 11:53:47;;;;;;;1.80;0.70;;;19.10;1.00;;;;;;5096216;28;20262;-82
2022/05/25 11:56:46;;;;;;;3.20;0.93;;;19.00;1.00;;;;;;5096250;28;20168;-81
2022/05/25 11:59:30;;;;;;;1.90;0.93;;;18.80;99.90;;;;;;5096724;28;20636;-81
2022/05/25 12:02:19;;;;;;;2.53;1.07;;;18.70;99.90;;;;;;5080386;28;20173;-81
2022/05/25 12:05:11;;;;;;;1.27;0.80;;;18.70;1.00;;;;;;5082290;28;20168;-82
2022/05/25 12:08:16;;;;;;;1.43;0.73;;;18.90;1.00;;;;;;5097497;28;20203;-84
2022/05/25 12:11:14;;;;;;;1.37;0.80;;;19.00;99.90;;;;;;5072914;28;20187;-82
2022/05/25 12:14:06;;;;;;;3.93;1.07;;;18.90;99.90;;;;;;5103963;28;20173;-83
2022/05/25 12:16:41;;;;;;;4.87;1.10;;;18.90;1.00;;;;;;5114547;28;20239;-82
2022/05/25 12:19:27;;;;;;;2.70;1.33;;;19.10;1.00;;;;;;5112993;28;20167;-82
2022/05/25 12:21:57;;;;;;;3.60;0.97;;;19.30;1.00;;;;;;5086622;28;20582;-83
2022/05/25 12:24:34;;;;;;;3.80;1.03;;;19.30;1.00;;;;;;5085863;28;20170;-85
2022/05/25 12:27:13;;;;;;;4.67;1.07;;;19.20;1.00;;;;;;5103884;28;20195;-83
2022/05/25 12:29:44;;;;;;;4.63;0.97;;;19.20;99.90;;;;;;5106860;28;20198;-82
2022/05/25 12:32:14;;;;;;;4.43;1.30;;;19.30;99.90;;;;;;5092354;28;20168;-82
2022/05/25 12:34:47;;;;;;;4.67;1.23;;;19.40;99.90;;;;;;5089499;28;20648;-85
2022/05/25 12:37:20;;;;;;;3.23;1.10;;;19.40;99.90;;;;;;5114841;28;20156;-79
2022/05/25 12:39:46;;;;;;;3.50;1.10;;;19.30;99.90;;;;;;5116854;28;20156;-80
2022/05/25 12:42:23;;;;;;;4.37;1.53;;;19.00;99.90;;;;;;5118343;28;20159;-82
2022/05/25 12:48:52;;;;;;;4.20;0.93;;;19.20;99.90;;;;;;5117982;28;20210;-82
2022/05/25 12:51:43;;;;;;;3.37;0.90;;;19.30;1.00;;;;;;5118449;28;20186;-83
2022/05/25 12:54:28;;;;;;;8.27;3.00;;;19.30;99.90;;;;;;5117990;28;20167;-81
2022/05/25 12:56:56;;;;;;;3.47;0.90;;;19.10;99.90;;;;;;5113316;28;20191;-81
2022/05/25 12:59:35;;;;;;;4.27;1.93;;;19.10;1.00;;;;;;5111609;28;20136;-80
2022/05/25 13:02:13;;;;;;;5.33;1.27;;;19.20;1.00;;;;;;5113785;28;20187;-82
2022/05/25 13:04:49;;;;;;;4.70;1.57;;;19.10;1.00;;;;;;5092823;28;20509;-86
2022/05/25 13:10:37;;;;;;;4.67;1.33;;;19.40;1.00;;;;;;5106543;28;20171;-85
2022/05/25 13:13:45;;;;;;;2.60;1.40;;;19.20;1.00;;;;;;5103951;28;20181;-82
2022/05/25 13:16:45;;;;;;;4.57;1.30;;;19.30;1.00;;;;;;5085205;28;20180;-80
2022/05/25 13:19:38;;;;;;;6.27;1.70;;;19.80;99.90;;;;;;5085827;28;20207;-83
2022/05/25 13:22:10;;;;;;;4.50;1.60;;;20.00;1.00;;;;;;5088185;28;20171;-81
2022/05/25 13:24:54;;;;;;;3.57;1.13;;;19.90;1.00;;;;;;5105184;28;20167;-85
2022/05/25 13:27:39;;;;;;;6.90;1.40;;;19.80;99.90;;;;;;5086192;28;20286;-84
2022/05/25 13:30:17;;;;;;;4.43;1.30;;;19.40;99.90;;;;;;5105144;28;20206;-82
2022/05/25 13:33:04;;;;;;;3.70;1.20;;;19.40;1.00;;;;;;5090767;28;20235;-81
2022/05/25 13:35:38;;;;;;;2.20;1.10;;;19.40;1.00;;;;;;5093142;28;20179;-81
2022/05/25 13:38:28;;;;;;;3.70;1.00;;;19.50;1.00;;;;;;5100361;28;20182;-80
2022/05/25 13:41:19;;;;;;;4.00;1.17;;;19.50;98.90;;;;;;5106913;28;20155;-78
2022/05/25 13:43:56;;;;;;;3.93;1.27;;;19.30;1.00;;;;;;5139041;28;20149;-80
2022/05/25 13:46:34;;;;;;;5.77;2.63;;;19.10;99.90;;;;;;5102348;28;20152;-80
2022/05/25 13:49:04;;;;;;;4.53;1.30;;;19.00;99.90;;;;;;5101881;28;20214;-82
2022/05/25 13:51:34;;;;;;;6.40;1.40;;;19.00;99.90;;;;;;5094331;28;20202;-83
2022/05/25 13:54:25;;;;;;;3.73;1.30;;;18.90;99.90;;;;;;5112425;28;20154;-83
2022/05/25 14:00:28;;;;;;;3.40;1.27;;;18.60;1.00;;;;;;5107775;28;20163;-83
2022/05/25 14:03:34;;;;;;;3.80;1.00;;;18.70;15.40;;;;;;5089987;28;20174;-81
2022/05/25 14:06:04;;;;;;;3.30;1.47;;;18.90;1.00;;;;;;5107839;28;20169;-84
2022/05/25 14:11:51;;;;;;;2.13;0.90;;;18.60;35.30;;;;;;5099507;28;20199;-82
2022/05/25 14:14:35;;;;;;;3.00;0.90;;;18.70;99.90;;;;;;5108393;28;20248;-82
2022/05/25 14:17:04;;;;;;;2.37;1.10;;;18.80;1.00;;;;;;5106798;28;20182;-83
2022/05/25 14:19:32;;;;;;;2.93;1.10;;;18.80;1.00;;;;;;5089105;28;20237;-81
2022/05/25 14:22:07;;;;;;;5.27;1.20;;;18.90;99.90;;;;;;5087682;28;20166;-83